Time;durP1;ratioP1;P1;durP2;ratioP2;P2;SDS_P1;SDS_P2;PMS_P1;PMS_P2;Temp;Humidity;BMP_temperature;BMP_pressure;BME280_temperature;BME280_humidity;BME280_pressure;Samples;Min_cycle;Max_cycle;Signal;HPM_P1;HPM_P2
2023/12/03 00:00:13;;;;;;;19.80;6.40;;;;;;;16.69;33.11;98996.02;105484;1258;60459;-59
2023/12/03 00:02:42;;;;;;;12.80;5.00;;;;;;;16.75;33.31;98995.02;105702;1253;63636;-58
2023/12/03 00:05:10;;;;;;;14.10;5.00;;;;;;;16.82;33.27;98992.86;105460;1254;61578;-60
2023/12/03 00:07:37;;;;;;;19.60;7.80;;;;;;;16.91;33.25;98995.55;106370;1254;62469;-60
2023/12/03 00:10:06;;;;;;;15.80;7.00;;;;;;;16.96;33.23;98982.64;105357;1256;60738;-62
2023/12/03 00:12:35;;;;;;;16.60;7.20;;;;;;;16.98;33.36;98972.08;105646;1253;60429;-60
2023/12/03 00:15:04;;;;;;;13.10;6.30;;;;;;;17.03;33.35;98964.73;105731;1259;63799;-59
2023/12/03 00:17:32;;;;;;;15.20;6.90;;;;;;;17.06;33.10;98956.77;105604;1256;69234;-60
2023/12/03 00:20:00;;;;;;;13.60;5.40;;;;;;;17.00;33.03;98944.15;105320;1254;62604;-59
2023/12/03 00:22:28;;;;;;;13.90;7.10;;;;;;;16.95;32.97;98946.98;105332;1254;60427;-61
2023/12/03 00:24:55;;;;;;;15.30;6.40;;;;;;;16.89;33.03;98957.02;105304;1252;60845;-63
2023/12/03 00:27:23;;;;;;;11.90;6.00;;;;;;;16.87;33.07;98962.25;105320;1256;64971;-62
2023/12/03 00:29:52;;;;;;;17.50;8.40;;;;;;;16.83;33.06;98957.15;106821;1254;60550;-63
2023/12/03 00:32:19;;;;;;;13.40;5.30;;;;;;;16.77;33.15;98949.15;105400;1257;62526;-60
2023/12/03 00:34:47;;;;;;;12.50;5.50;;;;;;;16.80;33.25;98953.00;105487;1253;60658;-61
2023/12/03 00:37:15;;;;;;;13.60;5.10;;;;;;;16.87;33.14;98964.61;105398;1255;60619;-62
2023/12/03 00:39:43;;;;;;;13.40;4.60;;;;;;;16.95;33.06;98975.89;105496;1254;73786;-61
2023/12/03 00:42:10;;;;;;;15.40;6.70;;;;;;;17.01;33.06;98969.75;105471;1257;61542;-61
2023/12/03 00:44:38;;;;;;;12.50;5.20;;;;;;;17.10;33.00;98962.05;105431;1253;63784;-61
2023/12/03 00:47:06;;;;;;;15.10;6.90;;;;;;;17.20;33.00;98954.02;105444;1257;60553;-60
2023/12/03 00:49:33;;;;;;;16.60;6.90;;;;;;;17.23;32.82;98948.50;105411;1251;61150;-60
2023/12/03 00:52:01;;;;;;;14.90;5.90;;;;;;;17.28;32.91;98947.91;105639;1254;63729;-62
2023/12/03 00:54:29;;;;;;;18.20;6.40;;;;;;;17.31;32.85;98936.46;105344;1253;60896;-61
2023/12/03 00:56:56;;;;;;;15.30;7.40;;;;;;;17.32;32.94;98925.91;105391;1257;62527;-61
2023/12/03 00:59:24;;;;;;;14.20;6.20;;;;;;;17.31;32.87;98921.28;105902;1256;60511;-62
2023/12/03 01:01:52;;;;;;;20.20;8.50;;;;;;;17.29;32.84;98917.31;105274;1257;60444;-62
2023/12/03 01:04:20;;;;;;;14.90;6.60;;;;;;;17.24;32.72;98918.20;105972;1257;72900;-62
2023/12/03 01:06:47;;;;;;;15.30;6.00;;;;;;;17.17;32.81;98929.93;105347;1256;60550;-63
2023/12/03 01:09:15;;;;;;;15.00;6.80;;;;;;;17.13;32.73;98936.88;105293;1253;62517;-61
2023/12/03 01:11:43;;;;;;;15.10;6.30;;;;;;;16.99;32.90;98954.77;105324;1262;60442;-62
2023/12/03 01:14:11;;;;;;;18.70;7.20;;;;;;;16.91;32.98;98979.98;105419;1259;59530;-60
2023/12/03 01:16:38;;;;;;;15.50;5.90;;;;;;;16.93;33.04;99006.14;105357;1253;64971;-62
2023/12/03 01:19:06;;;;;;;15.60;6.60;;;;;;;16.97;33.04;99019.96;105342;1259;60712;-62
2023/12/03 01:21:34;;;;;;;17.20;6.90;;;;;;;17.03;33.10;99034.52;105357;1257;62495;-61
2023/12/03 01:24:02;;;;;;;13.80;5.30;;;;;;;17.16;33.09;99028.47;105678;1259;60427;-60
2023/12/03 01:26:30;;;;;;;18.90;6.20;;;;;;;17.29;33.17;99038.54;105666;1255;61180;-62
2023/12/03 01:28:58;;;;;;;13.30;5.50;;;;;;;17.39;32.99;99022.09;105507;1253;63679;-62
2023/12/03 01:31:26;;;;;;;15.70;5.90;;;;;;;17.46;32.83;99020.89;105801;1257;60101;-61
2023/12/03 01:33:53;;;;;;;12.80;6.00;;;;;;;17.50;32.92;99021.01;105286;1254;63686;-61
2023/12/03 01:36:21;;;;;;;21.90;8.20;;;;;;;17.52;32.77;99022.85;105419;1257;60552;-62
2023/12/03 01:38:49;;;;;;;13.10;5.80;;;;;;;17.49;32.65;99028.25;105526;1254;60548;-62
2023/12/03 01:41:17;;;;;;;19.70;8.30;;;;;;;17.46;32.58;99022.02;105468;1253;65039;-61
2023/12/03 01:43:49;;;;;;;17.50;7.20;;;;;;;17.42;32.63;99020.98;106161;1257;60451;-64
2023/12/03 01:46:18;;;;;;;15.40;6.80;;;;;;;17.37;32.58;99038.02;105897;1254;62514;-61
2023/12/03 01:48:46;;;;;;;15.00;5.90;;;;;;;17.31;32.57;99013.63;105361;1257;60547;-62
2023/12/03 01:51:14;;;;;;;15.20;5.90;;;;;;;17.25;32.66;98970.84;105368;1257;60501;-61
2023/12/03 01:53:42;;;;;;;14.20;5.00;;;;;;;17.20;32.75;98967.72;105329;1251;63634;-61
2023/12/03 01:56:10;;;;;;;12.70;4.30;;;;;;;17.19;32.68;98962.98;106313;1256;60445;-62
2023/12/03 01:58:39;;;;;;;15.00;6.30;;;;;;;17.24;32.78;98932.89;105261;1254;63875;-62
2023/12/03 02:01:07;;;;;;;13.20;4.70;;;;;;;17.30;32.92;98925.49;107116;1254;60451;-61
2023/12/03 02:03:35;;;;;;;11.50;5.00;;;;;;;17.38;32.84;98935.04;106456;1257;60643;-61
2023/12/03 02:06:03;;;;;;;12.70;4.90;;;;;;;17.44;32.70;98942.95;105641;1253;65532;-61
2023/12/03 02:08:32;;;;;;;14.00;5.10;;;;;;;17.51;32.56;98948.44;106529;1258;60439;-61
2023/12/03 02:11:03;;;;;;;17.00;8.50;;;;;;;17.53;32.61;98950.40;106756;1253;63738;-61
2023/12/03 02:13:32;;;;;;;20.80;8.60;;;;;;;17.55;32.66;98962.19;105179;1254;60426;-63
2023/12/03 02:16:00;;;;;;;15.10;7.30;;;;;;;17.58;32.53;98971.73;105488;1256;60517;-64
2023/12/03 02:18:29;;;;;;;16.20;7.70;;;;;;;17.63;32.54;98983.83;105882;1257;63754;-63
2023/12/03 02:20:56;;;;;;;14.40;6.60;;;;;;;17.60;32.49;98990.67;105890;1253;61849;-61
2023/12/03 02:23:27;;;;;;;14.70;6.70;;;;;;;17.54;32.59;98988.98;105340;1256;64365;-63
2023/12/03 02:25:55;;;;;;;14.40;6.70;;;;;;;17.47;32.39;98989.61;105443;1259;60913;-53
2023/12/03 02:28:23;;;;;;;28.20;18.70;;;;;;;17.42;32.50;98977.14;106783;1253;60351;-60
2023/12/03 02:30:50;;;;;;;17.30;6.30;;;;;;;17.38;32.57;98967.52;105260;1252;64871;-62
2023/12/03 02:33:18;;;;;;;11.30;5.10;;;;;;;17.40;32.47;98955.61;105379;1254;60103;-60
2023/12/03 02:35:46;;;;;;;13.70;5.30;;;;;;;17.43;32.36;98948.34;105339;1257;62485;-61
2023/12/03 02:38:14;;;;;;;13.90;5.60;;;;;;;17.44;32.41;98915.24;105481;1252;61023;-62
2023/12/03 02:40:42;;;;;;;11.60;4.80;;;;;;;17.39;32.66;98895.52;105404;1256;60601;-62
2023/12/03 02:43:09;;;;;;;12.80;6.00;;;;;;;17.39;32.57;98895.07;105478;1257;64960;-62
2023/12/03 02:45:37;;;;;;;15.20;7.70;;;;;;;17.41;32.71;98886.28;105374;1259;60617;-62
2023/12/03 02:48:05;;;;;;;17.10;9.10;;;;;;;17.42;32.80;98871.71;105389;1257;63511;-61
2023/12/03 02:50:33;;;;;;;16.70;8.70;;;;;;;17.44;32.80;98887.19;105694;1259;60527;-61
2023/12/03 02:53:01;;;;;;;18.10;8.30;;;;;;;17.44;32.81;98882.23;105262;1254;61606;-59
2023/12/03 02:55:29;;;;;;;18.10;8.90;;;;;;;17.42;32.58;98874.84;105759;1259;63714;-60
2023/12/03 02:57:57;;;;;;;18.00;7.70;;;;;;;17.39;32.62;98862.60;105379;1253;61802;-60
2023/12/03 03:00:24;;;;;;;17.60;6.60;;;;;;;17.36;32.66;98855.76;105380;1256;64027;-57
2023/12/03 03:02:54;;;;;;;15.20;6.70;;;;;;;17.32;32.64;98832.45;105947;1256;60518;-57
2023/12/03 03:05:21;;;;;;;16.60;8.40;;;;;;;17.27;32.79;98821.41;106139;1256;62029;-60
2023/12/03 03:07:49;;;;;;;15.20;6.50;;;;;;;17.25;32.69;98836.92;105462;1256;65006;-60
2023/12/03 03:10:17;;;;;;;11.50;4.90;;;;;;;17.21;32.76;98851.30;105356;1257;61877;-61
2023/12/03 03:12:44;;;;;;;11.80;4.60;;;;;;;17.18;32.70;98849.95;105296;1257;63643;-61
2023/12/03 03:15:12;;;;;;;12.00;4.00;;;;;;;17.20;32.70;98860.79;105389;1257;63913;-60
2023/12/03 03:17:40;;;;;;;13.20;5.70;;;;;;;17.24;32.69;98884.88;105371;1256;60524;-59
2023/12/03 03:20:08;;;;;;;11.80;5.30;;;;;;;17.32;32.83;98913.60;105386;1253;63713;-59
2023/12/03 03:22:36;;;;;;;14.30;7.20;;;;;;;17.27;32.82;98960.58;105734;1252;61388;-60
2023/12/03 03:25:04;;;;;;;13.80;5.70;;;;;;;17.17;32.85;98937.78;105305;1257;63722;-58
2023/12/03 03:27:32;;;;;;;12.90;4.50;;;;;;;17.10;33.16;98938.54;105781;1257;60473;-59
2023/12/03 03:30:00;;;;;;;13.80;6.10;;;;;;;17.00;33.27;98929.15;107431;1256;59662;-59
2023/12/03 03:32:27;;;;;;;11.60;6.00;;;;;;;16.94;33.40;98910.29;105964;1256;64150;-60
2023/12/03 03:34:55;;;;;;;14.00;7.00;;;;;;;16.94;33.56;98919.56;105334;1251;61807;-59
2023/12/03 03:37:22;;;;;;;14.30;6.50;;;;;;;16.89;33.48;98939.77;107629;1256;62529;-60
2023/12/03 03:39:50;;;;;;;12.30;6.00;;;;;;;16.77;33.55;98925.53;105290;1253;62366;-61
2023/12/03 03:42:18;;;;;;;14.40;4.80;;;;;;;16.74;33.78;98934.42;105379;1254;60694;-62
2023/12/03 03:44:46;;;;;;;14.70;7.20;;;;;;;16.71;33.75;98943.83;105261;1258;63677;-61
2023/12/03 03:47:13;;;;;;;13.20;6.00;;;;;;;16.65;33.78;98952.09;105165;1256;60463;-61
2023/12/03 03:49:41;;;;;;;12.00;5.70;;;;;;;16.61;33.93;98944.62;105222;1257;64197;-58
2023/12/03 03:52:09;;;;;;;9.90;4.10;;;;;;;16.67;33.85;98931.87;105270;1257;60556;-53
2023/12/03 03:54:42;;;;;;;11.80;4.00;;;;;;;16.77;33.83;98938.77;105061;1251;60633;-60
2023/12/03 03:57:10;;;;;;;10.40;4.70;;;;;;;16.87;33.78;98934.95;105242;1256;65080;-60
2023/12/03 03:59:38;;;;;;;9.80;3.90;;;;;;;16.97;33.81;98920.48;105184;1257;60448;-60
2023/12/03 04:02:05;;;;;;;10.90;4.90;;;;;;;17.09;33.75;98912.41;105319;1256;62598;-60
2023/12/03 04:04:33;;;;;;;13.10;5.10;;;;;;;17.23;33.79;98916.05;105096;1257;60616;-59
2023/12/03 04:07:01;;;;;;;12.20;5.80;;;;;;;17.39;33.53;98940.59;105193;1259;60382;-61
2023/12/03 04:09:30;;;;;;;14.30;5.70;;;;;;;17.43;33.47;98957.87;105222;1264;63678;-60
2023/12/03 04:11:58;;;;;;;13.20;6.30;;;;;;;17.46;33.36;98950.48;109318;1255;60119;-58
2023/12/03 04:14:25;;;;;;;12.50;5.60;;;;;;;17.44;33.36;98959.18;109314;1254;62509;-60
2023/12/03 04:16:53;;;;;;;11.40;5.40;;;;;;;17.35;33.12;98962.85;108812;1251;59125;-60
2023/12/03 04:19:21;;;;;;;15.10;6.40;;;;;;;17.27;33.02;98967.12;105326;1251;60319;-60
2023/12/03 04:21:48;;;;;;;14.10;4.90;;;;;;;17.14;32.97;98975.19;105373;1257;64956;-60
2023/12/03 04:24:16;;;;;;;11.80;5.10;;;;;;;17.06;33.22;98977.70;106241;1256;60450;-60
2023/12/03 04:26:44;;;;;;;10.60;5.00;;;;;;;17.00;33.31;98974.08;105391;1257;62575;-60
2023/12/03 04:29:12;;;;;;;14.00;5.30;;;;;;;16.94;33.43;98961.38;105348;1256;60556;-60
2023/12/03 04:31:39;;;;;;;17.70;6.50;;;;;;;16.93;33.50;98957.20;105455;1251;60553;-59
2023/12/03 04:34:08;;;;;;;11.40;4.20;;;;;;;16.89;33.61;98965.13;105555;1251;64076;-58
2023/12/03 04:36:35;;;;;;;11.30;3.80;;;;;;;16.90;33.48;98982.59;105240;1258;61561;-60
2023/12/03 04:39:04;;;;;;;12.10;5.00;;;;;;;16.90;33.24;98989.05;105649;1251;62529;-60
2023/12/03 04:41:36;;;;;;;8.50;3.20;;;;;;;16.92;33.36;98981.45;106507;1256;60559;-60
2023/12/03 04:44:06;;;;;;;9.80;3.00;;;;;;;16.92;33.52;98970.98;106534;1257;60515;-56
2023/12/03 04:46:34;;;;;;;10.00;3.90;;;;;;;17.00;33.64;98961.04;105283;1260;64945;-57
2023/12/03 04:49:02;;;;;;;17.00;11.80;;;;;;;17.11;33.69;98959.23;105412;1251;61659;-57
2023/12/03 04:51:30;;;;;;;10.40;4.30;;;;;;;17.18;33.50;98960.67;105299;1257;64215;-56
2023/12/03 04:53:57;;;;;;;11.00;5.30;;;;;;;17.21;33.54;98967.60;105325;1257;60517;-55
2023/12/03 04:56:25;;;;;;;10.30;3.20;;;;;;;17.20;33.51;98969.29;107373;1254;59250;-56
2023/12/03 04:58:53;;;;;;;6.80;3.20;;;;;;;17.15;33.48;98976.75;105282;1254;65092;-54
2023/12/03 05:01:21;;;;;;;12.80;5.20;;;;;;;17.08;33.40;98987.43;106029;1254;71090;-55
2023/12/03 05:03:48;;;;;;;10.20;3.50;;;;;;;17.00;33.58;98986.88;105312;1254;63830;-55
2023/12/03 05:06:16;;;;;;;8.80;4.30;;;;;;;16.99;33.54;98986.25;105435;1257;60750;-56
2023/12/03 05:08:44;;;;;;;10.80;4.80;;;;;;;16.91;33.59;98982.77;105530;1254;60474;-55
2023/12/03 05:11:11;;;;;;;6.90;1.90;;;;;;;16.89;33.54;98988.79;105436;1251;64925;-55
2023/12/03 05:13:39;;;;;;;8.50;3.30;;;;;;;16.91;33.72;98987.58;105378;1252;60698;-55
2023/12/03 05:16:07;;;;;;;7.30;2.60;;;;;;;16.91;33.68;98986.63;105397;1253;62870;-57
2023/12/03 05:18:35;;;;;;;5.10;2.10;;;;;;;16.93;33.84;98988.03;105421;1253;61325;-57
2023/12/03 05:21:03;;;;;;;7.90;2.70;;;;;;;16.93;33.93;98985.74;105454;1257;60492;-55
2023/12/03 05:23:31;;;;;;;9.40;3.30;;;;;;;16.91;33.89;98983.98;105604;1256;65408;-56
2023/12/03 05:25:58;;;;;;;7.70;3.20;;;;;;;16.88;33.85;98978.90;105399;1254;60518;-56
2023/12/03 05:28:26;;;;;;;6.40;2.50;;;;;;;16.81;33.90;98979.62;105278;1257;62476;-55
2023/12/03 05:30:54;;;;;;;8.70;4.10;;;;;;;16.77;34.15;98987.23;105389;1257;60578;-55
2023/12/03 05:33:22;;;;;;;7.90;3.80;;;;;;;16.72;34.06;98996.33;105292;1256;60568;-55
2023/12/03 05:35:50;;;;;;;9.50;3.80;;;;;;;16.73;34.14;98994.13;105391;1257;64928;-56
2023/12/03 05:38:18;;;;;;;7.00;2.50;;;;;;;16.77;34.19;98997.45;105225;1251;61335;-56
2023/12/03 05:40:45;;;;;;;7.70;3.60;;;;;;;16.81;34.19;99008.83;105387;1251;62671;-55
2023/12/03 05:43:14;;;;;;;9.30;2.80;;;;;;;16.84;34.24;99020.96;105956;1260;60362;-54
2023/12/03 05:45:42;;;;;;;7.00;3.80;;;;;;;16.93;34.20;99030.29;105611;1251;60703;-57
2023/12/03 05:48:10;;;;;;;8.00;3.90;;;;;;;16.99;34.19;99034.53;105361;1251;63697;-56
2023/12/03 05:50:38;;;;;;;8.00;3.30;;;;;;;17.01;34.31;99034.26;105553;1258;60521;-57
2023/12/03 05:53:06;;;;;;;6.60;3.00;;;;;;;16.98;34.30;99039.63;105366;1257;62642;-55
2023/12/03 05:55:34;;;;;;;8.80;4.00;;;;;;;16.99;34.31;99045.94;106550;1254;60459;-55
2023/12/03 05:58:01;;;;;;;9.20;3.80;;;;;;;16.88;34.23;99048.44;105373;1251;60571;-55
2023/12/03 06:00:29;;;;;;;9.60;3.60;;;;;;;16.82;34.55;99054.86;105371;1252;64846;-55
2023/12/03 06:02:59;;;;;;;8.00;3.50;;;;;;;16.89;34.45;99053.73;106011;1254;60376;-56
2023/12/03 06:05:27;;;;;;;9.10;3.70;;;;;;;17.02;34.39;99056.86;106638;1254;62538;-56
2023/12/03 06:07:55;;;;;;;9.00;2.70;;;;;;;17.08;34.36;99061.31;105481;1251;60440;-55
2023/12/03 06:10:23;;;;;;;7.80;2.70;;;;;;;17.16;34.35;99068.30;105276;1254;60418;-56
2023/12/03 06:12:51;;;;;;;11.30;4.00;;;;;;;17.24;34.21;99087.07;107844;1254;64952;-56
2023/12/03 06:15:19;;;;;;;8.40;2.70;;;;;;;17.24;34.32;99090.46;105451;1257;60449;-56
2023/12/03 06:17:47;;;;;;;9.80;4.80;;;;;;;17.16;34.55;99092.02;106110;1255;62474;-57
2023/12/03 06:20:14;;;;;;;10.30;3.40;;;;;;;17.14;34.50;99102.88;105256;1256;60502;-56
2023/12/03 06:22:42;;;;;;;6.50;2.90;;;;;;;17.14;34.44;99106.33;105423;1256;60513;-58
2023/12/03 06:25:10;;;;;;;9.60;4.00;;;;;;;17.05;34.34;99112.04;105308;1251;64880;-57
2023/12/03 06:27:38;;;;;;;11.60;5.90;;;;;;;17.01;34.44;99111.56;105533;1256;60554;-57
2023/12/03 06:30:06;;;;;;;7.60;3.20;;;;;;;17.10;34.44;99108.71;105266;1257;62550;-54
2023/12/03 06:32:34;;;;;;;11.00;4.20;;;;;;;17.21;34.33;99106.76;106628;1251;60510;-55
2023/12/03 06:35:04;;;;;;;8.60;4.00;;;;;;;17.27;34.44;99111.01;105856;1257;60616;-58
2023/12/03 06:37:31;;;;;;;10.30;3.60;;;;;;;17.36;34.40;99115.54;105755;1254;64905;-56
2023/12/03 06:39:59;;;;;;;7.60;2.60;;;;;;;17.41;34.24;99125.50;105508;1256;60290;-57
2023/12/03 06:42:27;;;;;;;14.70;9.60;;;;;;;17.41;34.17;99126.23;105894;1256;62487;-55
2023/12/03 06:44:57;;;;;;;8.80;3.40;;;;;;;17.36;34.27;99127.11;105429;1251;61026;-54
2023/12/03 06:47:24;;;;;;;8.90;4.70;;;;;;;17.32;34.29;99134.46;105405;1254;60559;-58
2023/12/03 06:49:52;;;;;;;8.70;4.30;;;;;;;17.25;34.26;99144.40;106030;1251;72875;-55
2023/12/03 06:52:19;;;;;;;7.70;3.00;;;;;;;17.18;34.32;99150.70;105532;1251;63693;-56
2023/12/03 06:54:47;;;;;;;9.30;4.70;;;;;;;17.20;34.27;99155.14;105411;1254;71397;-54
2023/12/03 06:57:15;;;;;;;9.60;4.00;;;;;;;17.20;34.23;99160.79;102694;1257;3687870;-54
2023/12/03 07:11:52;;;;;;;10.60;4.40;;;;;;;15.46;38.02;99164.06;105811;1266;604881;-54
2023/12/03 07:14:19;;;;;;;12.00;8.60;;;;;;;17.66;33.48;99168.61;105244;1248;3616262;-54
2023/12/03 07:16:46;;;;;;;8.30;4.40;;;;;;;17.47;33.73;99179.13;107945;1246;59354;-55
2023/12/03 07:19:13;;;;;;;7.90;3.20;;;;;;;17.35;33.88;99186.46;107318;1247;59232;-53
2023/12/03 07:21:40;;;;;;;9.20;3.90;;;;;;;17.24;33.99;99188.58;107477;1246;61717;-54
2023/12/03 07:24:07;;;;;;;9.90;3.50;;;;;;;17.12;34.03;99195.35;107684;1245;64585;-54
2023/12/03 07:26:34;;;;;;;8.00;2.90;;;;;;;16.98;34.00;99201.85;107228;1241;59245;-53
2023/12/03 07:29:01;;;;;;;10.40;7.30;;;;;;;16.87;34.12;99210.67;107462;1247;59312;-53
2023/12/03 07:31:28;;;;;;;8.10;3.30;;;;;;;16.80;34.20;99217.42;107134;1247;63772;-54
2023/12/03 07:33:54;;;;;;;8.40;3.80;;;;;;;16.72;34.45;99231.52;107125;1247;61581;-56
2023/12/03 07:36:21;;;;;;;7.30;3.20;;;;;;;16.64;34.41;99232.15;107737;1246;64000;-53
2023/12/03 07:38:48;;;;;;;5.80;2.50;;;;;;;16.55;34.23;99225.98;107168;1243;60296;-55
2023/12/03 07:41:15;;;;;;;7.60;3.00;;;;;;;16.45;33.94;99222.41;107181;1242;59732;-51
2023/12/03 07:43:42;;;;;;;4.60;1.70;;;;;;;16.44;33.70;99222.19;107102;1246;64303;-55
2023/12/03 07:46:10;;;;;;;4.80;1.90;;;;;;;16.47;33.55;99232.56;107124;1241;61450;-53
2023/12/03 07:48:37;;;;;;;8.70;1.90;;;;;;;16.59;33.48;99235.08;106868;1248;63715;-54
2023/12/03 07:51:09;;;;;;;5.30;1.80;;;;;;;16.63;33.29;99238.44;109011;1246;59672;-54
2023/12/03 07:53:36;;;;;;;5.80;1.50;;;;;;;16.69;33.30;99234.45;111222;1241;57683;-53
2023/12/03 07:56:03;;;;;;;5.10;1.80;;;;;;;16.66;33.22;99253.48;109133;1242;63136;-55
2023/12/03 07:58:30;;;;;;;4.00;1.80;;;;;;;16.61;33.12;99253.52;109392;1246;61740;-55
2023/12/03 08:00:59;;;;;;;3.70;1.40;;;;;;;16.51;33.28;99265.72;107257;1244;64433;-55
2023/12/03 08:03:26;;;;;;;3.80;1.10;;;;;;;16.49;33.12;99276.53;107235;1247;59642;-55
2023/12/03 08:05:53;;;;;;;5.60;2.00;;;;;;;16.49;33.23;99278.08;107878;1241;59555;-55
2023/12/03 08:08:20;;;;;;;3.60;1.50;;;;;;;16.53;33.30;99290.96;107911;1246;64249;-54
2023/12/03 08:10:47;;;;;;;6.20;1.50;;;;;;;16.55;33.22;99287.70;107244;1241;61258;-54
2023/12/03 08:13:14;;;;;;;4.00;1.30;;;;;;;16.60;33.15;99295.23;107179;1244;62797;-55
2023/12/03 08:15:41;;;;;;;6.00;1.70;;;;;;;16.62;33.13;99296.32;107391;1245;59617;-55
2023/12/03 08:18:08;;;;;;;5.40;1.20;;;;;;;16.56;33.13;99298.82;107639;1246;59642;-54
2023/12/03 08:20:35;;;;;;;4.80;1.40;;;;;;;16.53;33.10;99303.88;107388;1247;64554;-54
2023/12/03 08:23:02;;;;;;;3.70;1.40;;;;;;;16.41;32.99;99298.14;107469;1246;61504;-55
2023/12/03 08:25:29;;;;;;;3.00;1.10;;;;;;;16.44;33.10;99299.72;108539;1246;63771;-56
2023/12/03 08:27:56;;;;;;;3.50;1.00;;;;;;;16.44;32.95;99311.89;106977;1242;59805;-54
2023/12/03 08:30:24;;;;;;;4.90;1.30;;;;;;;16.55;32.69;99317.45;111268;1241;57378;-56
2023/12/03 08:32:51;;;;;;;3.60;1.20;;;;;;;16.59;32.65;99322.88;109581;1245;64216;-55
2023/12/03 08:35:18;;;;;;;3.40;1.20;;;;;;;16.55;32.60;99324.20;107020;1242;61828;-55
2023/12/03 08:37:45;;;;;;;4.60;1.60;;;;;;;16.38;32.57;99334.88;108197;1245;62658;-56
2023/12/03 08:40:13;;;;;;;6.60;2.10;;;;;;;16.29;32.50;99329.98;108231;1245;59435;-57
2023/12/03 08:42:41;;;;;;;4.10;1.30;;;;;;;16.17;32.47;99332.33;107315;1247;59657;-62
2023/12/03 08:45:09;;;;;;;4.10;1.40;;;;;;;16.19;32.58;99341.81;109080;1245;73455;-59
2023/12/03 08:47:35;;;;;;;5.30;1.40;;;;;;;16.25;32.54;99342.06;109252;1244;61347;-63
2023/12/03 08:50:04;;;;;;;4.00;1.20;;;;;;;16.35;32.51;99346.47;108373;1241;63923;-61
2023/12/03 08:52:31;;;;;;;4.00;1.50;;;;;;;16.41;32.35;99365.50;106814;1242;59690;-62
2023/12/03 08:54:59;;;;;;;4.60;1.30;;;;;;;16.27;32.01;99381.87;107636;1247;59623;-61
2023/12/03 08:57:26;;;;;;;5.60;1.80;;;;;;;16.29;32.14;99388.70;110235;1244;64347;-60
2023/12/03 08:59:54;;;;;;;4.30;1.80;;;;;;;16.25;32.03;99397.39;107163;1247;61567;-61
2023/12/03 09:02:21;;;;;;;6.70;3.10;;;;;;;16.21;32.07;99395.21;107606;1245;64039;-64
2023/12/03 09:04:50;;;;;;;5.40;2.40;;;;;;;16.15;32.35;99406.89;107871;1242;60344;-60
2023/12/03 09:07:18;;;;;;;6.30;1.90;;;;;;;16.03;32.25;99411.63;107870;1241;59626;-61
2023/12/03 09:09:45;;;;;;;7.80;2.90;;;;;;;16.00;32.41;99410.23;107107;1244;62836;-62
2023/12/03 09:12:14;;;;;;;6.00;2.00;;;;;;;15.99;32.63;99418.86;107438;1247;68640;-63
2023/12/03 09:14:40;;;;;;;7.60;2.80;;;;;;;16.05;32.56;99426.50;107319;1247;63732;-59
2023/12/03 09:17:07;;;;;;;5.20;1.80;;;;;;;16.12;32.53;99432.36;107203;1242;60205;-61
2023/12/03 09:19:34;;;;;;;5.40;2.10;;;;;;;15.99;32.02;99440.92;107519;1241;60128;-60
2023/12/03 09:22:01;;;;;;;6.10;2.50;;;;;;;15.86;31.89;99431.33;107226;1246;64776;-62
2023/12/03 09:24:29;;;;;;;4.50;2.00;;;;;;;15.71;32.11;99436.98;109605;1245;61899;-56
2023/12/03 09:26:59;;;;;;;11.10;3.80;;;;;;;15.56;32.09;99442.04;107204;1245;63738;-56
2023/12/03 09:29:26;;;;;;;10.30;3.90;;;;;;;15.43;32.14;99443.09;107084;1246;59636;-59
2023/12/03 09:31:53;;;;;;;6.60;2.40;;;;;;;15.21;32.28;99458.50;107979;1244;59653;-57
2023/12/03 09:34:23;;;;;;;6.50;2.30;;;;;;;15.01;32.35;99468.07;107764;1246;64793;-56
2023/12/03 09:36:50;;;;;;;6.70;2.40;;;;;;;14.85;32.55;99486.00;108227;1238;62215;-56
2023/12/03 09:39:17;;;;;;;9.80;2.90;;;;;;;14.89;32.51;99494.04;107291;1244;63673;-57
2023/12/03 09:41:51;;;;;;;9.20;4.00;;;;;;;15.05;32.48;99486.94;107605;1239;59514;-56
2023/12/03 09:44:27;;;;;;;10.90;4.40;;;;;;;14.94;32.40;99487.42;107402;1239;60517;-57
2023/12/03 09:46:54;;;;;;;7.00;2.80;;;;;;;14.96;32.44;99496.98;107481;1238;64968;-57
2023/12/03 09:49:24;;;;;;;7.40;3.10;;;;;;;14.91;32.41;99500.84;108964;1241;61532;-56
2023/12/03 09:51:51;;;;;;;9.40;4.30;;;;;;;14.82;32.48;99497.25;108208;1242;63918;-57
2023/12/03 09:54:19;;;;;;;7.60;3.00;;;;;;;14.78;32.37;99508.56;107675;1239;59681;-56
2023/12/03 09:56:46;;;;;;;9.70;2.50;;;;;;;14.80;32.30;99512.35;107696;1241;59722;-55
2023/12/03 09:59:13;;;;;;;10.90;4.70;;;;;;;14.86;32.28;99524.58;108416;1240;63986;-55
2023/12/03 10:01:40;;;;;;;6.20;2.70;;;;;;;14.72;31.99;99538.09;107773;1240;60197;-56
2023/12/03 10:04:07;;;;;;;9.30;3.10;;;;;;;14.46;31.82;99547.16;107813;1238;64051;-56
2023/12/03 10:06:34;;;;;;;8.40;3.10;;;;;;;14.36;31.84;99556.34;107949;1237;59625;-55
2023/12/03 10:09:03;;;;;;;15.30;3.80;;;;;;;14.29;32.16;99544.05;108068;1239;60511;-56
2023/12/03 10:11:39;;;;;;;7.80;3.50;;;;;;;14.24;32.48;99551.79;107711;1240;64204;-56
2023/12/03 10:14:09;;;;;;;;;;;;;;;14.19;32.47;99562.17;108790;1240;61663;-56
2023/12/03 10:16:36;;;;;;;8.30;4.10;;;;;;;14.28;32.30;99567.90;107920;1241;63721;-55
2023/12/03 10:19:03;;;;;;;9.50;3.60;;;;;;;14.27;32.23;99570.90;107599;1241;59540;-55
2023/12/03 10:21:30;;;;;;;9.20;4.10;;;;;;;14.10;32.00;99587.64;109008;1238;59723;-59
2023/12/03 10:23:58;;;;;;;6.80;3.20;;;;;;;13.94;32.03;99588.20;108274;1239;64788;-55
2023/12/03 10:26:25;;;;;;;8.20;2.70;;;;;;;13.85;32.13;99604.61;108301;1238;61275;-55
2023/12/03 10:28:52;;;;;;;8.00;3.10;;;;;;;13.74;32.05;99605.41;107749;1236;63765;-57
2023/12/03 10:31:19;;;;;;;8.70;3.60;;;;;;;13.70;32.01;99604.66;109169;1238;59648;-58
2023/12/03 10:33:47;;;;;;;11.60;4.50;;;;;;;13.68;31.97;99610.11;108322;1238;59613;-56
2023/12/03 10:36:14;;;;;;;9.80;4.10;;;;;;;13.55;31.96;99621.05;108679;1240;64283;-55
2023/12/03 10:38:44;;;;;;;7.00;3.20;;;;;;;13.59;31.67;99629.02;107924;1238;61628;-69
2023/12/03 10:41:13;;;;;;;9.50;3.40;;;;;;;13.64;31.50;99624.80;108348;1240;63720;-61
2023/12/03 10:43:41;;;;;;;15.10;3.70;;;;;;;13.71;31.68;99626.57;111694;1237;57597;-63
2023/12/03 10:46:10;;;;;;;9.80;5.60;;;;;;;13.66;31.65;99621.05;111674;1236;57628;-65
2023/12/03 10:48:36;;;;;;;9.20;3.60;;;;;;;13.64;31.70;99628.92;107576;1237;64001;-61
2023/12/03 10:51:06;;;;;;;8.60;3.20;;;;;;;13.80;31.52;99634.78;111690;1238;63067;-61
2023/12/03 10:53:33;;;;;;;8.50;3.50;;;;;;;13.83;31.22;99642.59;111677;1236;62710;-63
2023/12/03 10:56:01;;;;;;;11.80;4.40;;;;;;;13.70;31.13;99653.23;111619;1238;57460;-60
2023/12/03 10:58:30;;;;;;;9.40;3.80;;;;;;;13.74;31.18;99671.06;111653;1240;57637;-61
2023/12/03 11:01:05;;;;;;;7.70;3.60;;;;;;;13.64;31.18;99679.98;111652;1237;64483;-60
2023/12/03 11:03:56;;;;;;;6.60;3.30;;;;;;;13.82;31.16;99676.00;109634;1237;61681;-60
2023/12/03 11:06:24;;;;;;;9.10;4.40;;;;;;;13.83;31.10;99693.20;107282;1241;63955;-61
2023/12/03 11:08:53;;;;;;;7.80;3.40;;;;;;;13.75;31.00;99696.66;111664;1238;57701;-58
2023/12/03 11:11:22;;;;;;;12.10;4.00;;;;;;;13.75;30.95;99700.70;109192;1237;59376;-61
2023/12/03 11:13:54;;;;;;;10.30;3.90;;;;;;;13.81;31.15;99708.70;109110;1236;64221;-57
2023/12/03 11:16:21;;;;;;;9.60;4.50;;;;;;;13.69;31.13;99721.41;107516;1240;60680;-60
2023/12/03 11:19:01;;;;;;;9.50;4.40;;;;;;;13.48;31.15;99735.33;107357;1241;63985;-62
2023/12/03 11:21:41;;;;;;;12.80;3.60;;;;;;;13.58;31.10;99729.42;109813;1240;59209;-63
2023/12/03 11:24:19;;;;;;;7.80;3.80;;;;;;;13.64;31.26;99742.20;107668;1237;60445;-58
2023/12/03 11:26:46;;;;;;;13.30;4.40;;;;;;;13.69;31.16;99737.73;108442;1241;64782;-61
2023/12/03 11:29:13;;;;;;;11.60;5.00;;;;;;;13.79;31.04;99734.84;109259;1238;62168;-59
2023/12/03 11:31:43;;;;;;;11.60;4.20;;;;;;;13.83;31.00;99740.77;108316;1241;64464;-65
2023/12/03 11:34:10;;;;;;;7.70;3.10;;;;;;;13.81;30.99;99743.47;107678;1238;60216;-64
2023/12/03 11:36:52;;;;;;;9.50;3.60;;;;;;;13.77;30.80;99745.83;107537;1240;60346;-69